Time;durP1;ratioP1;P1;durP2;ratioP2;P2;SDS_P1;SDS_P2;PMS_P1;PMS_P2;Temp;Humidity;BMP_temperature;BMP_pressure;BME280_temperature;BME280_humidity;BME280_pressure;Samples;Min_cycle;Max_cycle;Signal;HPM_P1;HPM_P2
2022/01/30 00:01:31;;;;;;;26.00;5.30;;;7.90;99.90;;;;;;5046207;28;20025;-43
2022/01/30 00:03:57;;;;;;;25.05;5.40;;;7.90;99.90;;;;;;5046699;28;20460;-43
2022/01/30 00:06:23;;;;;;;24.63;5.15;;;7.90;99.90;;;;;;5046449;28;20033;-42
2022/01/30 00:08:49;;;;;;;24.60;4.55;;;7.80;99.90;;;;;;5046653;28;20124;-43
2022/01/30 00:11:20;;;;;;;20.90;4.00;;;7.80;99.90;;;;;;5046476;28;20017;-43
2022/01/30 00:13:46;;;;;;;25.00;4.85;;;7.80;99.90;;;;;;5046121;28;20094;-42
2022/01/30 00:16:14;;;;;;;31.55;5.30;;;7.80;99.90;;;;;;5046822;28;20476;-43
2022/01/30 00:18:52;;;;;;;22.80;4.57;;;7.70;99.90;;;;;;5046775;28;20036;-43
2022/01/30 00:21:33;;;;;;;19.65;4.00;;;7.70;99.90;;;;;;5042570;28;20067;-43
2022/01/30 00:24:07;;;;;;;24.85;4.70;;;7.60;99.90;;;;;;5047317;28;20032;-42
2022/01/30 00:26:35;;;;;;;18.35;4.13;;;7.60;99.90;;;;;;5043805;28;20025;-43
2022/01/30 00:29:02;;;;;;;18.90;4.28;;;7.60;99.90;;;;;;5046067;28;20021;-43
2022/01/30 00:31:27;;;;;;;20.88;4.57;;;7.50;99.90;;;;;;5046166;28;20532;-43
2022/01/30 00:33:54;;;;;;;28.58;5.93;;;7.50;99.90;;;;;;5047001;28;20103;-46
2022/01/30 00:36:20;;;;;;;25.58;4.40;;;7.60;99.90;;;;;;5046790;28;20108;-43
2022/01/30 00:38:45;;;;;;;21.15;4.25;;;7.50;99.90;;;;;;5050777;28;20116;-43
2022/01/30 00:41:12;;;;;;;23.42;4.57;;;7.50;99.90;;;;;;5050153;28;20092;-43
2022/01/30 00:43:37;;;;;;;16.67;4.32;;;7.50;99.90;;;;;;5049718;28;20052;-43
2022/01/30 00:46:03;;;;;;;20.05;3.92;;;7.50;99.90;;;;;;5050423;28;20425;-44
2022/01/30 00:48:29;;;;;;;17.83;5.13;;;7.50;99.90;;;;;;5050027;28;20032;-42
2022/01/30 00:50:55;;;;;;;15.68;3.67;;;7.50;99.90;;;;;;5049763;28;20021;-43
2022/01/30 00:53:21;;;;;;;20.08;4.25;;;7.50;99.90;;;;;;5049786;28;20171;-43
2022/01/30 00:55:46;;;;;;;28.13;5.75;;;7.40;99.90;;;;;;5049939;28;20127;-42
2022/01/30 00:58:12;;;;;;;28.42;4.95;;;7.40;99.90;;;;;;5049642;28;20380;-43
2022/01/30 01:00:38;;;;;;;18.35;4.15;;;7.40;99.90;;;;;;5050226;28;20017;-43
2022/01/30 01:03:04;;;;;;;15.63;3.28;;;7.40;99.90;;;;;;5049266;28;20139;-43
2022/01/30 01:05:32;;;;;;;28.20;5.28;;;7.40;99.90;;;;;;5049415;28;20056;-43
2022/01/30 01:08:01;;;;;;;17.27;3.65;;;7.40;99.90;;;;;;5050391;28;20025;-43
2022/01/30 01:23:50;;;;;;;20.35;3.90;;;7.50;99.90;;;;;;5038732;28;20392;-43
2022/01/30 01:26:16;;;;;;;21.65;4.55;;;7.60;99.90;;;;;;5048864;28;20048;-42
2022/01/30 01:28:42;;;;;;;19.13;4.40;;;7.60;99.90;;;;;;5049714;28;20021;-42
2022/01/30 01:31:08;;;;;;;22.48;4.22;;;7.70;99.90;;;;;;5048690;28;20032;-42
2022/01/30 01:33:47;;;;;;;24.77;4.68;;;7.70;99.90;;;;;;5049080;28;20103;-42
2022/01/30 01:36:13;;;;;;;11.00;2.90;;;7.70;99.90;;;;;;5049736;28;20029;-43
2022/01/30 01:38:39;;;;;;;16.33;3.75;;;7.70;99.90;;;;;;5048750;28;20055;-43
2022/01/30 01:41:04;;;;;;;13.43;2.80;;;7.80;99.90;;;;;;5049860;28;20495;-41
2022/01/30 01:43:30;;;;;;;17.98;3.75;;;7.80;99.90;;;;;;5048791;28;20456;-44
2022/01/30 01:45:58;;;;;;;17.23;3.15;;;7.80;99.90;;;;;;5048769;28;20479;-44
2022/01/30 01:48:24;;;;;;;14.07;3.13;;;7.80;99.90;;;;;;5047856;28;20033;-43
2022/01/30 01:50:54;;;;;;;16.40;3.58;;;7.80;99.90;;;;;;5049610;28;20556;-42
2022/01/30 01:53:23;;;;;;;16.92;3.50;;;7.70;99.90;;;;;;5047546;28;20041;-43
2022/01/30 01:55:48;;;;;;;12.98;3.10;;;7.60;99.90;;;;;;5049227;28;20490;-43
2022/01/30 01:58:14;;;;;;;15.73;3.35;;;7.50;99.90;;;;;;5048785;28;20135;-42
2022/01/30 02:00:40;;;;;;;18.00;3.83;;;7.40;99.90;;;;;;5048808;28;20753;-43
2022/01/30 02:03:05;;;;;;;14.88;3.50;;;7.40;99.90;;;;;;5049085;28;20013;-43
2022/01/30 02:05:34;;;;;;;19.58;3.60;;;7.30;99.90;;;;;;5048948;28;20507;-43
2022/01/30 02:10:45;;;;;;;13.88;3.58;;;7.20;99.90;;;;;;5048379;28;20055;-43
2022/01/30 02:13:51;;;;;;;10.93;2.63;;;7.20;99.90;;;;;;5047947;28;20020;-42
2022/01/30 02:24:48;;;;;;;21.10;5.18;;;7.40;99.90;;;;;;5048344;28;20043;-43
2022/01/30 02:27:18;;;;;;;19.40;4.15;;;7.50;99.90;;;;;;5028026;28;20057;-43
2022/01/30 02:29:44;;;;;;;16.23;3.65;;;7.50;99.90;;;;;;5043474;28;20036;-43
2022/01/30 02:32:09;;;;;;;14.10;3.25;;;7.50;99.90;;;;;;5048379;28;20029;-43
2022/01/30 02:34:35;;;;;;;18.73;3.58;;;7.50;99.90;;;;;;5047393;28;20473;-44
2022/01/30 02:37:00;;;;;;;16.92;3.22;;;7.50;99.90;;;;;;5048802;28;20029;-42
2022/01/30 02:39:27;;;;;;;16.23;3.15;;;7.50;99.90;;;;;;5047522;28;20029;-42
2022/01/30 02:41:53;;;;;;;15.15;3.25;;;7.40;99.90;;;;;;5047649;28;20068;-42
2022/01/30 02:46:51;;;;;;;14.20;2.88;;;7.20;99.90;;;;;;5048568;28;20036;-43
2022/01/30 02:51:48;;;;;;;16.35;2.95;;;7.00;99.90;;;;;;5048447;28;20516;-42
2022/01/30 02:54:14;;;;;;;18.13;3.55;;;7.00;99.90;;;;;;5047540;28;20032;-42
2022/01/30 02:56:40;;;;;;;13.63;3.42;;;6.90;99.90;;;;;;5047301;28;20067;-43
2022/01/30 02:59:06;;;;;;;19.13;3.35;;;6.90;99.90;;;;;;5047513;28;20037;-43
2022/01/30 03:01:32;;;;;;;19.10;3.53;;;6.80;99.90;;;;;;5046667;28;20107;-43
2022/01/30 03:03:58;;;;;;;11.05;2.83;;;6.80;99.90;;;;;;5047856;28;20104;-43
2022/01/30 03:06:24;;;;;;;10.18;2.70;;;6.80;99.90;;;;;;5047164;28;20025;-42
2022/01/30 03:08:50;;;;;;;12.63;2.72;;;6.80;99.90;;;;;;5047812;28;20599;-42
2022/01/30 03:11:15;;;;;;;10.80;2.97;;;6.70;99.90;;;;;;5046561;28;20104;-42
2022/01/30 03:13:41;;;;;;;16.02;2.95;;;6.80;99.90;;;;;;5047865;28;20017;-43
2022/01/30 03:16:06;;;;;;;16.55;3.70;;;6.80;99.90;;;;;;5047675;28;20481;-42
2022/01/30 03:18:32;;;;;;;17.70;2.80;;;6.70;99.90;;;;;;5046584;28;20480;-43
2022/01/30 03:20:58;;;;;;;14.85;3.08;;;6.70;99.90;;;;;;5047948;28;20032;-43
2022/01/30 03:23:24;;;;;;;12.18;2.88;;;6.70;99.90;;;;;;5047104;28;20032;-44
2022/01/30 03:25:54;;;;;;;14.35;2.75;;;6.70;99.90;;;;;;5046818;28;20032;-43
2022/01/30 03:28:20;;;;;;;13.98;4.15;;;6.70;99.90;;;;;;5047381;28;20033;-43
2022/01/30 03:30:48;;;;;;;16.33;2.60;;;6.60;99.90;;;;;;5046594;28;20017;-42
2022/01/30 03:33:13;;;;;;;13.35;2.63;;;6.60;99.90;;;;;;5046985;28;20548;-42
2022/01/30 03:35:40;;;;;;;17.40;2.80;;;6.60;99.90;;;;;;5047587;28;20021;-43
2022/01/30 03:38:05;;;;;;;9.75;2.45;;;6.50;99.90;;;;;;5046578;28;20596;-43
2022/01/30 03:40:31;;;;;;;10.98;2.75;;;6.60;99.90;;;;;;5047023;28;20025;-43
2022/01/30 03:42:57;;;;;;;12.82;2.65;;;6.50;99.90;;;;;;5047486;28;20535;-43
2022/01/30 03:45:23;;;;;;;12.75;1.95;;;6.50;99.90;;;;;;5046268;28;20466;-42
2022/01/30 03:47:51;;;;;;;9.88;2.70;;;6.50;99.90;;;;;;5046972;28;20024;-43
2022/01/30 03:50:16;;;;;;;12.02;2.58;;;6.40;99.90;;;;;;5046616;28;20107;-43
2022/01/30 03:52:42;;;;;;;8.43;2.13;;;6.40;99.90;;;;;;5046390;28;20053;-43
2022/01/30 03:55:08;;;;;;;14.98;2.80;;;6.40;99.90;;;;;;5047152;28;20476;-43
2022/01/30 03:57:33;;;;;;;14.25;2.85;;;6.40;99.90;;;;;;5046697;28;20404;-43
2022/01/30 03:59:59;;;;;;;11.10;2.35;;;6.40;99.90;;;;;;5046636;28;20091;-43
2022/01/30 04:02:24;;;;;;;7.68;2.22;;;6.40;99.90;;;;;;5046181;28;20111;-43
2022/01/30 04:04:50;;;;;;;10.18;2.35;;;6.30;99.90;;;;;;5046955;28;20041;-43
2022/01/30 04:07:17;;;;;;;8.85;1.92;;;6.30;99.90;;;;;;5045524;28;20032;-43
2022/01/30 04:09:42;;;;;;;10.95;1.85;;;6.30;99.90;;;;;;5047097;28;20061;-43
2022/01/30 04:12:08;;;;;;;8.30;2.10;;;6.30;99.90;;;;;;5046109;28;20482;-44
2022/01/30 04:14:34;;;;;;;14.50;2.45;;;6.20;99.90;;;;;;5045781;28;20479;-43
2022/01/30 04:17:00;;;;;;;19.00;2.78;;;6.20;99.90;;;;;;5046837;28;20053;-42
2022/01/30 04:19:26;;;;;;;14.77;2.65;;;6.20;99.90;;;;;;5046285;28;20040;-41
2022/01/30 04:21:51;;;;;;;13.45;2.97;;;6.20;99.90;;;;;;5046340;28;20036;-42
2022/01/30 04:24:17;;;;;;;14.30;3.25;;;6.30;99.90;;;;;;5045882;28;20064;-45
2022/01/30 04:26:44;;;;;;;12.70;2.58;;;6.30;99.90;;;;;;5046762;28;20024;-43
2022/01/30 04:29:09;;;;;;;14.52;2.38;;;6.30;99.90;;;;;;5045938;28;20029;-42
2022/01/30 04:31:35;;;;;;;9.88;2.30;;;6.40;99.90;;;;;;5046644;28;20021;-42
2022/01/30 04:34:01;;;;;;;14.40;2.95;;;6.30;99.90;;;;;;5046033;28;20060;-43
2022/01/30 04:36:32;;;;;;;12.10;2.63;;;6.30;99.90;;;;;;5046285;28;20021;-43
2022/01/30 04:41:57;;;;;;;12.63;2.50;;;6.30;99.90;;;;;;5045819;28;20037;-42
2022/01/30 05:02:58;;;;;;;12.27;2.90;;;6.60;99.90;;;;;;5046022;28;20029;-42
2022/01/30 05:05:53;;;;;;;16.55;3.08;;;6.50;99.90;;;;;;5045936;28;20489;-43
2022/01/30 05:08:18;;;;;;;9.90;2.40;;;6.50;99.90;;;;;;5045547;28;20512;-43
2022/01/30 05:10:44;;;;;;;11.30;2.50;;;6.50;99.90;;;;;;5045537;28;20031;-43
2022/01/30 05:13:14;;;;;;;12.85;3.28;;;6.50;99.90;;;;;;5046372;28;20535;-42
2022/01/30 05:15:42;;;;;;;10.93;2.10;;;6.40;99.90;;;;;;5046143;28;20021;-43
2022/01/30 05:18:08;;;;;;;17.40;4.07;;;6.40;99.90;;;;;;5045253;28;20037;-44
2022/01/30 05:20:34;;;;;;;6.32;2.00;;;6.40;99.90;;;;;;5045868;28;20037;-42
2022/01/30 05:23:00;;;;;;;12.15;2.85;;;6.40;99.90;;;;;;5046673;28;20469;-42
2022/01/30 05:25:26;;;;;;;12.25;2.60;;;6.40;99.90;;;;;;5048197;28;20044;-43
2022/01/30 05:27:51;;;;;;;11.38;2.92;;;6.40;99.90;;;;;;5050192;28;20025;-43
2022/01/30 05:30:17;;;;;;;12.98;2.45;;;6.40;99.90;;;;;;5048444;28;20021;-45
2022/01/30 05:32:43;;;;;;;12.40;2.45;;;6.40;99.90;;;;;;5049772;28;20021;-42
2022/01/30 05:35:09;;;;;;;11.38;2.28;;;6.40;99.90;;;;;;5049343;28;20029;-43
2022/01/30 05:37:37;;;;;;;11.27;2.65;;;6.40;99.90;;;;;;5048582;28;20052;-43
2022/01/30 05:40:04;;;;;;;12.80;2.47;;;6.40;99.90;;;;;;5049655;28;20028;-44
2022/01/30 05:42:30;;;;;;;12.40;2.25;;;6.30;99.90;;;;;;5049380;28;20064;-42
2022/01/30 05:45:07;;;;;;;14.50;2.30;;;6.30;99.90;;;;;;5048776;28;20471;-42
2022/01/30 05:47:42;;;;;;;11.68;2.42;;;6.30;99.90;;;;;;5049247;28;20068;-42
2022/01/30 05:50:08;;;;;;;12.02;2.15;;;6.20;99.90;;;;;;5049128;28;20032;-43
2022/01/30 05:52:33;;;;;;;9.43;1.92;;;6.20;99.90;;;;;;5048531;28;20068;-43
2022/01/30 05:54:59;;;;;;;10.07;1.70;;;6.10;99.90;;;;;;5049020;28;20033;-43
2022/01/30 05:57:24;;;;;;;10.30;2.05;;;6.20;99.90;;;;;;5048962;28;20048;-42
2022/01/30 05:59:50;;;;;;;15.27;2.80;;;6.20;99.90;;;;;;5048706;28;20067;-42
2022/01/30 06:02:15;;;;;;;10.40;2.83;;;6.20;99.90;;;;;;5048501;28;20025;-43
2022/01/30 06:04:41;;;;;;;11.65;3.10;;;6.30;99.90;;;;;;5049443;28;20031;-42
2022/01/30 06:07:08;;;;;;;25.73;4.22;;;6.30;99.90;;;;;;5048489;28;20032;-43
2022/01/30 06:09:34;;;;;;;14.52;2.92;;;6.30;99.90;;;;;;5048902;28;20029;-44
2022/01/30 06:11:59;;;;;;;11.80;2.88;;;6.30;99.90;;;;;;5049429;28;20021;-42
2022/01/30 06:14:25;;;;;;;23.25;3.72;;;6.40;99.90;;;;;;5047910;28;20388;-42
2022/01/30 06:16:53;;;;;;;18.48;3.25;;;6.40;99.90;;;;;;5048925;28;20493;-42
2022/01/30 06:19:19;;;;;;;14.57;3.38;;;6.40;99.90;;;;;;5047995;28;20103;-44
2022/01/30 06:21:45;;;;;;;16.65;4.15;;;6.50;99.90;;;;;;5048626;28;20039;-43
2022/01/30 06:24:10;;;;;;;15.70;3.45;;;6.50;99.90;;;;;;5048632;28;20035;-42
2022/01/30 06:26:36;;;;;;;12.23;3.25;;;6.40;99.90;;;;;;5047590;28;20092;-42
2022/01/30 06:29:02;;;;;;;22.95;3.70;;;6.40;99.90;;;;;;5049007;28;20399;-44
2022/01/30 06:31:27;;;;;;;16.80;4.03;;;6.40;99.90;;;;;;5047878;28;20044;-42
2022/01/30 06:33:53;;;;;;;20.52;4.18;;;6.40;99.90;;;;;;5048119;28;20039;-41
2022/01/30 06:36:21;;;;;;;15.02;3.17;;;6.40;99.90;;;;;;5048264;28;20024;-42
2022/01/30 06:38:47;;;;;;;15.20;2.90;;;6.40;99.90;;;;;;5048255;28;20033;-44
2022/01/30 06:41:16;;;;;;;19.83;3.83;;;6.40;99.90;;;;;;5047362;28;20079;-43
2022/01/30 06:43:41;;;;;;;20.00;4.30;;;6.40;99.90;;;;;;5048514;28;20020;-43
2022/01/30 06:46:10;;;;;;;14.88;3.38;;;6.40;99.90;;;;;;5048313;28;20075;-43
2022/01/30 06:48:35;;;;;;;14.10;2.95;;;6.40;99.90;;;;;;5047076;28;20480;-42
2022/01/30 06:51:01;;;;;;;19.25;3.53;;;6.30;99.90;;;;;;5048448;28;20035;-43
2022/01/30 06:53:26;;;;;;;25.13;4.35;;;6.20;99.90;;;;;;5047539;28;20049;-44
2022/01/30 06:55:52;;;;;;;20.88;3.78;;;6.20;99.90;;;;;;5047457;28;20032;-42
2022/01/30 06:58:18;;;;;;;16.25;3.30;;;6.10;99.90;;;;;;5047521;28;20036;-43
2022/01/30 07:00:43;;;;;;;25.33;4.60;;;6.10;99.90;;;;;;5048558;28;20125;-42
2022/01/30 07:03:09;;;;;;;22.25;4.22;;;6.10;99.90;;;;;;5046966;28;20100;-43
2022/01/30 07:05:34;;;;;;;20.20;3.97;;;6.10;99.90;;;;;;5047741;28;20037;-42
2022/01/30 07:08:00;;;;;;;15.55;3.53;;;6.20;99.90;;;;;;5048208;28;20070;-43
2022/01/30 07:10:25;;;;;;;15.45;3.58;;;6.20;99.90;;;;;;5046611;28;20060;-43
2022/01/30 07:12:51;;;;;;;10.77;2.90;;;6.20;99.90;;;;;;5047983;28;20021;-42
2022/01/30 07:15:17;;;;;;;19.60;3.58;;;6.20;99.90;;;;;;5047344;28;20551;-43
2022/01/30 07:17:43;;;;;;;13.98;3.25;;;6.20;99.90;;;;;;5046610;28;20099;-42
2022/01/30 07:20:10;;;;;;;12.45;3.13;;;6.20;99.90;;;;;;5047702;28;20039;-47
2022/01/30 07:22:35;;;;;;;15.85;2.88;;;6.30;99.90;;;;;;5047567;28;20021;-44
2022/01/30 07:25:02;;;;;;;10.88;2.60;;;6.30;99.90;;;;;;5046913;28;20438;-43
2022/01/30 07:27:28;;;;;;;18.40;3.03;;;6.30;99.90;;;;;;5047119;28;20045;-42
2022/01/30 07:29:54;;;;;;;12.90;3.30;;;6.30;99.90;;;;;;5046611;28;20083;-42
2022/01/30 07:32:19;;;;;;;14.13;3.63;;;6.30;99.90;;;;;;5047275;28;20013;-43
2022/01/30 07:34:49;;;;;;;18.10;3.70;;;6.20;99.90;;;;;;5047329;28;20017;-43
2022/01/30 07:37:14;;;;;;;14.85;2.90;;;6.10;99.90;;;;;;5046641;28;20108;-44
2022/01/30 07:39:41;;;;;;;12.85;2.75;;;6.10;99.90;;;;;;5047358;28;20039;-43
2022/01/30 07:42:07;;;;;;;19.88;3.83;;;6.00;99.90;;;;;;5047525;28;20029;-43
2022/01/30 07:44:32;;;;;;;19.50;3.47;;;6.00;99.90;;;;;;5046679;28;20025;-43
2022/01/30 07:46:58;;;;;;;17.02;3.92;;;5.90;99.90;;;;;;5046512;28;20641;-43
2022/01/30 07:49:23;;;;;;;15.02;2.90;;;5.90;99.90;;;;;;5046741;28;20396;-43
2022/01/30 07:51:49;;;;;;;14.57;3.00;;;6.00;99.90;;;;;;5046775;28;20048;-42
2022/01/30 07:54:15;;;;;;;18.15;4.30;;;6.10;99.90;;;;;;5046514;28;20044;-42
2022/01/30 07:56:40;;;;;;;15.73;3.25;;;6.20;99.90;;;;;;5047176;28;20746;-44
2022/01/30 07:59:06;;;;;;;17.27;3.55;;;6.20;99.90;;;;;;5046725;28;20032;-43
2022/01/30 08:01:31;;;;;;;17.55;3.28;;;6.30;99.90;;;;;;5046316;28;20021;-43
2022/01/30 08:03:57;;;;;;;17.35;3.50;;;6.30;99.90;;;;;;5047329;28;20060;-42
2022/01/30 08:06:23;;;;;;;17.52;3.50;;;6.30;99.90;;;;;;5043603;28;20645;-43
2022/01/30 08:08:48;;;;;;;19.08;3.38;;;6.20;99.90;;;;;;5046024;28;20033;-43
2022/01/30 08:11:14;;;;;;;12.90;3.15;;;6.20;99.90;;;;;;5045194;28;20033;-43
2022/01/30 08:13:39;;;;;;;20.58;3.97;;;6.20;99.90;;;;;;5045847;28;20040;-43
2022/01/30 08:16:05;;;;;;;20.45;3.70;;;6.30;99.90;;;;;;5045460;28;20488;-42
2022/01/30 08:18:32;;;;;;;19.30;3.53;;;6.30;99.90;;;;;;5045668;28;20033;-42
2022/01/30 08:20:58;;;;;;;16.50;3.47;;;6.30;99.90;;;;;;5044831;28;20053;-43
2022/01/30 08:23:27;;;;;;;20.42;3.88;;;6.40;99.90;;;;;;5045757;28;20057;-43
2022/01/30 08:25:53;;;;;;;21.27;3.83;;;6.40;99.90;;;;;;5048440;28;20039;-43
2022/01/30 08:28:18;;;;;;;13.27;3.20;;;6.40;99.90;;;;;;5044616;28;20471;-43
2022/01/30 08:30:45;;;;;;;17.98;3.65;;;6.40;99.90;;;;;;5046187;28;20029;-43
2022/01/30 08:33:14;;;;;;;21.77;3.47;;;6.40;99.90;;;;;;5045397;28;20111;-44
2022/01/30 08:35:40;;;;;;;16.05;3.50;;;6.40;99.90;;;;;;5045885;28;20021;-43
2022/01/30 08:38:05;;;;;;;22.90;3.67;;;6.40;99.90;;;;;;5046185;28;20369;-43
2022/01/30 08:40:31;;;;;;;17.48;3.78;;;6.40;99.90;;;;;;5044370;28;20021;-42
2022/01/30 08:42:56;;;;;;;16.42;3.53;;;6.40;99.90;;;;;;5046108;28;20033;-44
2022/01/30 08:45:22;;;;;;;17.70;3.55;;;6.50;99.90;;;;;;5045734;28;20029;-43
2022/01/30 08:47:50;;;;;;;14.50;4.32;;;6.60;99.90;;;;;;5045236;28;20264;-45
2022/01/30 08:50:17;;;;;;;9.43;3.13;;;6.70;99.90;;;;;;5045244;28;20056;-42
2022/01/30 08:52:43;;;;;;;12.82;3.03;;;6.70;99.90;;;;;;5045546;28;20127;-43
2022/01/30 08:55:10;;;;;;;21.65;3.67;;;6.70;99.90;;;;;;5044961;28;20532;-43
2022/01/30 08:57:36;;;;;;;14.07;3.03;;;6.70;99.90;;;;;;5047418;28;20043;-43
2022/01/30 09:00:04;;;;;;;15.35;3.60;;;6.70;99.90;;;;;;5049604;28;20037;-44
2022/01/30 09:02:30;;;;;;;17.33;3.42;;;6.70;99.90;;;;;;5048406;28;20083;-43
2022/01/30 09:04:55;;;;;;;17.27;3.30;;;6.80;99.90;;;;;;5049145;28;20396;-44
2022/01/30 09:07:21;;;;;;;13.40;2.85;;;6.80;99.90;;;;;;5049220;28;20052;-43
2022/01/30 09:09:47;;;;;;;10.98;3.00;;;6.90;99.90;;;;;;5048964;28;20508;-44
2022/01/30 09:12:12;;;;;;;19.30;3.42;;;7.00;99.90;;;;;;5048879;28;20017;-43
2022/01/30 09:14:40;;;;;;;20.15;3.78;;;7.00;99.90;;;;;;5049143;28;20025;-42
2022/01/30 09:17:14;;;;;;;16.83;3.38;;;7.00;99.90;;;;;;5048933;28;20048;-43
2022/01/30 09:19:41;;;;;;;11.57;3.03;;;7.10;99.90;;;;;;5038027;28;20108;-43
2022/01/30 09:22:09;;;;;;;16.67;3.30;;;7.20;99.90;;;;;;5049874;28;20375;-42
2022/01/30 09:24:35;;;;;;;16.67;3.30;;;7.20;99.90;;;;;;5048141;28;20056;-43
2022/01/30 09:27:00;;;;;;;18.75;3.38;;;7.30;99.90;;;;;;5048745;28;20039;-43
2022/01/30 09:29:29;;;;;;;20.02;3.95;;;7.30;99.90;;;;;;5048365;28;20025;-43
2022/01/30 09:31:56;;;;;;;18.17;3.58;;;7.40;99.90;;;;;;5049075;28;20040;-42
2022/01/30 09:34:21;;;;;;;19.58;4.45;;;7.30;99.90;;;;;;5048449;28;20024;-43
2022/01/30 09:36:47;;;;;;;27.13;4.93;;;7.20;99.90;;;;;;5048315;28;20380;-43
2022/01/30 09:39:13;;;;;;;19.05;4.00;;;7.10;99.90;;;;;;5048503;28;20029;-43
2022/01/30 09:41:40;;;;;;;19.35;4.40;;;7.00;99.90;;;;;;5048588;28;20111;-43
2022/01/30 09:44:06;;;;;;;21.88;4.75;;;7.00;99.90;;;;;;5048227;28;20075;-43
2022/01/30 09:46:32;;;;;;;25.23;4.38;;;7.00;99.90;;;;;;5048288;28;20072;-43
2022/01/30 09:48:59;;;;;;;20.85;4.30;;;7.00;99.90;;;;;;5049467;28;20028;-43
2022/01/30 09:51:24;;;;;;;18.33;4.35;;;7.20;99.90;;;;;;5048374;28;20025;-42
2022/01/30 09:53:50;;;;;;;27.23;4.72;;;7.30;99.90;;;;;;5053117;28;20106;-44
2022/01/30 09:56:18;;;;;;;28.08;5.30;;;7.40;99.90;;;;;;5048771;28;20021;-44
2022/01/30 09:58:44;;;;;;;16.75;4.00;;;7.40;99.90;;;;;;5048267;28;20471;-42
2022/01/30 10:01:10;;;;;;;16.13;3.80;;;7.40;99.90;;;;;;5049295;28;20100;-42
2022/01/30 10:03:35;;;;;;;24.33;4.72;;;7.40;99.90;;;;;;5048571;28;20163;-43
2022/01/30 10:06:16;;;;;;;17.40;4.00;;;7.50;99.90;;;;;;5048549;28;20021;-44
2022/01/30 10:08:46;;;;;;;24.85;4.75;;;7.60;99.90;;;;;;5048748;28;20033;-42
2022/01/30 10:11:28;;;;;;;23.48;4.25;;;7.70;99.90;;;;;;5048790;28;20055;-43
2022/01/30 10:14:04;;;;;;;23.40;4.30;;;7.80;99.90;;;;;;5049169;28;20033;-41
2022/01/30 10:16:45;;;;;;;28.33;5.68;;;7.90;99.90;;;;;;5040588;28;20021;-43
2022/01/30 10:19:20;;;;;;;30.00;5.85;;;7.90;99.90;;;;;;5048081;28;20041;-42
2022/01/30 10:21:47;;;;;;;32.00;5.72;;;7.90;99.90;;;;;;5037879;28;20385;-43
2022/01/30 10:24:28;;;;;;;21.98;5.22;;;7.90;99.90;;;;;;5048375;28;20048;-42
2022/01/30 10:26:59;;;;;;;25.52;5.80;;;7.90;99.90;;;;;;5047290;28;20035;-44
2022/01/30 10:29:30;;;;;;;20.85;4.95;;;8.00;99.90;;;;;;5046947;28;20071;-43
2022/01/30 10:31:57;;;;;;;27.38;5.93;;;8.00;99.90;;;;;;5048057;28;20388;-44
2022/01/30 10:34:23;;;;;;;28.00;5.45;;;8.00;99.90;;;;;;5044512;28;20036;-43
2022/01/30 10:36:49;;;;;;;29.17;6.18;;;8.00;99.90;;;;;;5048484;28;20024;-42
2022/01/30 10:39:18;;;;;;;31.05;5.53;;;7.90;99.90;;;;;;5048069;28;20070;-43
2022/01/30 10:41:52;;;;;;;22.80;4.50;;;7.90;99.90;;;;;;5047740;28;20025;-44
2022/01/30 10:44:19;;;;;;;20.67;4.85;;;7.90;99.90;;;;;;5048409;28;20112;-41
2022/01/30 10:46:46;;;;;;;22.35;5.10;;;7.90;99.90;;;;;;5047564;28;20044;-44
2022/01/30 10:49:20;;;;;;;27.42;5.05;;;7.90;99.90;;;;;;5047466;28;20068;-43
2022/01/30 10:52:01;;;;;;;22.00;4.53;;;7.90;99.90;;;;;;5048114;28;20108;-43
2022/01/30 10:54:36;;;;;;;35.58;6.00;;;7.80;99.90;;;;;;5047242;28;20692;-43
2022/01/30 10:57:10;;;;;;;27.70;5.50;;;7.80;99.90;;;;;;5047582;28;20032;-43
2022/01/30 10:59:42;;;;;;;31.00;5.82;;;7.80;99.90;;;;;;5047726;28;20041;-44
2022/01/30 11:02:11;;;;;;;19.80;5.13;;;7.80;99.90;;;;;;5046463;28;20032;-43
2022/01/30 11:04:36;;;;;;;18.33;4.00;;;7.80;99.90;;;;;;5047628;28;20033;-42
2022/01/30 11:07:03;;;;;;;29.42;5.28;;;7.90;99.90;;;;;;5048048;28;20546;-43
2022/01/30 11:09:37;;;;;;;24.25;4.95;;;7.90;99.90;;;;;;5047187;28;20061;-44
2022/01/30 11:12:13;;;;;;;26.15;5.47;;;7.90;99.90;;;;;;5050592;28;20036;-43
2022/01/30 11:14:52;;;;;;;28.40;4.65;;;7.90;99.90;;;;;;5049173;28;20025;-43
2022/01/30 11:17:20;;;;;;;25.33;4.50;;;8.00;99.90;;;;;;5046988;28;20025;-43
2022/01/30 11:19:53;;;;;;;32.97;5.95;;;8.10;99.90;;;;;;5047167;28;20033;-42
2022/01/30 11:22:21;;;;;;;31.58;5.68;;;8.10;99.90;;;;;;5045505;28;20478;-44
2022/01/30 11:24:49;;;;;;;21.38;4.57;;;8.20;99.90;;;;;;5048236;28;20044;-43
2022/01/30 11:27:17;;;;;;;26.92;5.38;;;8.20;99.90;;;;;;5046679;28;20037;-43
2022/01/30 11:29:43;;;;;;;24.45;5.38;;;8.20;99.60;;;;;;5046661;28;20495;-43
2022/01/30 11:32:10;;;;;;;22.90;4.70;;;8.30;99.30;;;;;;5046985;28;20024;-43
2022/01/30 11:34:38;;;;;;;24.63;4.70;;;8.40;99.80;;;;;;5045413;28;20461;-44
2022/01/30 11:37:06;;;;;;;24.35;5.20;;;8.50;99.50;;;;;;5045420;28;20411;-42
2022/01/30 11:39:32;;;;;;;25.58;5.50;;;8.60;98.80;;;;;;5046397;28;20032;-42
2022/01/30 11:42:14;;;;;;;27.10;5.57;;;8.70;98.80;;;;;;5045365;28;20017;-42
2022/01/30 11:44:43;;;;;;;28.27;6.07;;;8.80;98.60;;;;;;5036987;28;20028;-42
2022/01/30 11:47:09;;;;;;;29.77;5.47;;;8.80;97.60;;;;;;5044301;28;20033;-42
2022/01/30 11:49:43;;;;;;;25.65;5.50;;;8.80;97.40;;;;;;5047121;28;20059;-44
2022/01/30 11:52:10;;;;;;;32.33;6.18;;;8.70;97.20;;;;;;5045705;28;20033;-43
2022/01/30 11:54:49;;;;;;;25.83;5.05;;;8.70;97.20;;;;;;5046409;28;20484;-43
2022/01/30 11:57:18;;;;;;;21.13;4.85;;;8.80;97.60;;;;;;5046262;28;20037;-43
2022/01/30 11:59:45;;;;;;;29.95;6.32;;;8.80;96.80;;;;;;5046458;28;20781;-43
2022/01/30 12:02:23;;;;;;;20.92;5.95;;;8.70;96.60;;;;;;5046851;28;20029;-42
2022/01/30 12:04:58;;;;;;;19.73;4.45;;;8.70;96.10;;;;;;5044895;28;20028;-43
2022/01/30 12:07:35;;;;;;;28.42;5.45;;;8.70;96.80;;;;;;5046567;28;20071;-43
2022/01/30 12:10:16;;;;;;;27.13;5.32;;;8.70;95.50;;;;;;5042574;28;20017;-44
2022/01/30 12:12:58;;;;;;;30.67;5.68;;;8.60;96.20;;;;;;5046422;28;20035;-43
2022/01/30 12:15:43;;;;;;;21.33;4.70;;;8.60;95.30;;;;;;5046762;28;20031;-43
2022/01/30 12:18:14;;;;;;;22.67;4.57;;;8.60;95.90;;;;;;5045524;28;20047;-44
2022/01/30 12:20:59;;;;;;;20.73;5.25;;;8.60;96.20;;;;;;5046584;28;20024;-42
2022/01/30 12:23:26;;;;;;;30.48;5.47;;;8.70;96.00;;;;;;5045960;28;20029;-43
2022/01/30 12:26:05;;;;;;;22.05;4.47;;;8.70;96.00;;;;;;5046067;28;20071;-43
2022/01/30 12:28:45;;;;;;;20.38;4.53;;;8.70;96.50;;;;;;5046243;28;20081;-42
2022/01/30 12:31:46;;;;;;;13.32;3.67;;;8.70;96.80;;;;;;5036464;28;20388;-43
2022/01/30 12:34:15;;;;;;;23.05;4.13;;;8.80;97.10;;;;;;5026581;28;20407;-41
2022/01/30 12:36:43;;;;;;;23.65;5.28;;;8.90;96.70;;;;;;5046906;28;20037;-44
2022/01/30 12:39:21;;;;;;;26.25;5.25;;;8.90;94.90;;;;;;5050015;28;20119;-43
2022/01/30 12:41:47;;;;;;;28.45;5.70;;;8.90;95.40;;;;;;5050820;28;20029;-44
2022/01/30 12:44:15;;;;;;;22.45;4.72;;;9.00;95.00;;;;;;5050413;28;20021;-44
2022/01/30 12:46:48;;;;;;;27.23;4.93;;;9.00;95.00;;;;;;5049670;28;20024;-43
2022/01/30 12:49:16;;;;;;;;;;;9.00;95.30;;;;;;5050757;28;20182;-43
2022/01/30 12:51:47;;;;;;;21.08;4.90;;;9.00;95.50;;;;;;5050564;28;19904;-44
2022/01/30 12:54:15;;;;;;;30.73;6.22;;;8.90;95.20;;;;;;5049563;28;20029;-43
2022/01/30 12:56:41;;;;;;;23.95;5.22;;;8.80;95.30;;;;;;5050425;28;20039;-42
2022/01/30 12:59:07;;;;;;;25.92;5.55;;;8.80;95.70;;;;;;5050470;28;20041;-42
2022/01/30 13:01:43;;;;;;;21.20;4.97;;;8.80;95.00;;;;;;5049500;28;20009;-44
2022/01/30 13:04:14;;;;;;;25.45;4.72;;;8.90;95.50;;;;;;5050073;28;20544;-44
2022/01/30 13:06:44;;;;;;;23.13;5.32;;;9.00;95.00;;;;;;5049152;28;20028;-43
2022/01/30 13:09:11;;;;;;;31.73;5.55;;;9.00;94.50;;;;;;5049611;28;20036;-43
2022/01/30 13:11:36;;;;;;;17.63;4.93;;;9.00;94.30;;;;;;5046953;28;20025;-43
2022/01/30 13:14:07;;;;;;;18.67;4.88;;;9.10;94.80;;;;;;5050472;28;20503;-43
2022/01/30 13:16:40;;;;;;;24.27;4.93;;;9.20;95.00;;;;;;5049327;28;20025;-43
2022/01/30 13:19:07;;;;;;;;;;;9.20;93.60;;;;;;5050762;28;20108;-43
2022/01/30 13:21:34;;;;;;;23.23;4.53;;;9.10;93.10;;;;;;5048993;28;19948;-43
2022/01/30 13:24:02;;;;;;;21.40;4.15;;;9.00;93.70;;;;;;5050268;28;20017;-44
2022/01/30 13:26:33;;;;;;;28.58;6.22;;;8.90;94.20;;;;;;5048324;28;20029;-44
2022/01/30 13:29:00;;;;;;;25.40;5.97;;;8.80;93.80;;;;;;5049194;28;20052;-44
2022/01/30 13:31:26;;;;;;;21.42;4.43;;;8.70;93.50;;;;;;5049144;28;20028;-44
2022/01/30 13:34:13;;;;;;;21.42;4.63;;;8.70;93.90;;;;;;5050303;28;20023;-43
2022/01/30 13:36:41;;;;;;;20.75;4.68;;;8.70;94.40;;;;;;5048605;28;20465;-44
2022/01/30 13:39:11;;;;;;;22.40;5.95;;;8.80;94.20;;;;;;5049627;28;20070;-43
2022/01/30 13:41:46;;;;;;;23.23;5.68;;;8.90;94.30;;;;;;5048904;28;20041;-43
2022/01/30 13:44:23;;;;;;;20.52;4.93;;;9.00;94.50;;;;;;5047717;28;20036;-44